sensor_id;sensor_type;location;lat;lon;timestamp;pressure;altitude;pressure_sealevel;temperature;humidity
41264;BME280;26998;48.714;9.414;2023-06-22T00:00:58;99435.56;;;21.55;100.00
41264;BME280;26998;48.714;9.414;2023-06-22T00:03:25;99447.97;;;21.45;100.00
41264;BME280;26998;48.714;9.414;2023-06-22T00:05:53;99454.19;;;21.41;100.00
41264;BME280;26998;48.714;9.414;2023-06-22T00:08:19;99444.38;;;21.40;100.00
41264;BME280;26998;48.714;9.414;2023-06-22T00:10:46;99467.88;;;21.29;100.00
41264;BME280;26998;48.714;9.414;2023-06-22T00:13:14;99449.75;;;21.35;100.00
41264;BME280;26998;48.714;9.414;2023-06-22T00:15:41;99471.38;;;21.25;100.00
41264;BME280;26998;48.714;9.414;2023-06-22T00:18:09;99481.34;;;21.19;100.00
41264;BME280;26998;48.714;9.414;2023-06-22T00:20:36;99490.25;;;21.14;100.00
41264;BME280;26998;48.714;9.414;2023-06-22T00:23:05;99492.91;;;21.09;100.00
41264;BME280;26998;48.714;9.414;2023-06-22T00:25:31;99514.59;;;21.04;100.00
41264;BME280;26998;48.714;9.414;2023-06-22T00:27:58;99549.00;;;20.98;100.00
41264;BME280;26998;48.714;9.414;2023-06-22T00:30:24;99584.78;;;20.90;100.00
41264;BME280;26998;48.714;9.414;2023-06-22T00:32:51;99633.66;;;20.73;100.00
41264;BME280;26998;48.714;9.414;2023-06-22T00:35:18;99647.06;;;20.63;100.00
41264;BME280;26998;48.714;9.414;2023-06-22T00:37:45;99697.19;;;20.44;100.00
41264;BME280;26998;48.714;9.414;2023-06-22T00:40:11;99747.03;;;20.38;100.00
41264;BME280;26998;48.714;9.414;2023-06-22T00:42:38;99754.72;;;20.29;100.00
41264;BME280;26998;48.714;9.414;2023-06-22T00:45:06;99783.50;;;20.18;100.00
41264;BME280;26998;48.714;9.414;2023-06-22T00:47:37;99809.59;;;20.07;100.00
41264;BME280;26998;48.714;9.414;2023-06-22T00:50:07;99820.59;;;20.01;100.00
41264;BME280;26998;48.714;9.414;2023-06-22T00:52:34;99825.41;;;19.99;100.00
41264;BME280;26998;48.714;9.414;2023-06-22T00:55:02;99821.88;;;19.98;100.00
41264;BME280;26998;48.714;9.414;2023-06-22T00:57:31;99842.88;;;19.91;100.00
41264;BME280;26998;48.714;9.414;2023-06-22T00:59:58;99846.53;;;19.85;100.00
41264;BME280;26998;48.714;9.414;2023-06-22T01:02:25;99858.81;;;19.88;100.00
41264;BME280;26998;48.714;9.414;2023-06-22T01:04:52;99883.78;;;19.90;100.00
41264;BME280;26998;48.714;9.414;2023-06-22T01:10:07;99890.44;;;19.94;100.00
41264;BME280;26998;48.714;9.414;2023-06-22T01:12:52;99899.22;;;19.77;100.00
41264;BME280;26998;48.714;9.414;2023-06-22T01:15:57;99918.09;;;19.72;100.00
41264;BME280;26998;48.714;9.414;2023-06-22T01:18:28;99944.28;;;19.78;100.00
41264;BME280;26998;48.714;9.414;2023-06-22T01:20:57;99933.81;;;19.82;100.00
41264;BME280;26998;48.714;9.414;2023-06-22T01:23:33;99922.00;;;19.76;100.00
41264;BME280;26998;48.714;9.414;2023-06-22T01:26:14;99925.84;;;19.69;100.00
41264;BME280;26998;48.714;9.414;2023-06-22T01:28:49;99955.09;;;19.67;100.00
41264;BME280;26998;48.714;9.414;2023-06-22T01:31:18;99958.84;;;19.66;100.00
41264;BME280;26998;48.714;9.414;2023-06-22T01:33:53;99955.31;;;19.65;100.00
41264;BME280;26998;48.714;9.414;2023-06-22T01:36:22;99950.72;;;19.66;100.00
41264;BME280;26998;48.714;9.414;2023-06-22T01:38:50;99953.66;;;19.64;100.00
41264;BME280;26998;48.714;9.414;2023-06-22T01:41:24;99970.97;;;19.63;100.00
41264;BME280;26998;48.714;9.414;2023-06-22T01:43:52;99965.13;;;19.66;100.00
41264;BME280;26998;48.714;9.414;2023-06-22T01:46:20;99948.75;;;19.73;100.00
41264;BME280;26998;48.714;9.414;2023-06-22T01:48:47;99923.00;;;19.64;100.00
41264;BME280;26998;48.714;9.414;2023-06-22T01:51:15;99940.72;;;19.66;100.00
41264;BME280;26998;48.714;9.414;2023-06-22T01:53:42;99945.69;;;19.69;100.00
41264;BME280;26998;48.714;9.414;2023-06-22T01:56:10;99946.97;;;19.67;100.00
41264;BME280;26998;48.714;9.414;2023-06-22T01:58:46;99951.50;;;19.54;100.00
41264;BME280;26998;48.714;9.414;2023-06-22T02:01:25;99988.19;;;19.38;100.00
41264;BME280;26998;48.714;9.414;2023-06-22T02:04:03;100025.78;;;19.35;100.00
41264;BME280;26998;48.714;9.414;2023-06-22T02:06:35;100036.63;;;19.35;100.00
41264;BME280;26998;48.714;9.414;2023-06-22T02:09:16;100022.16;;;19.23;100.00
41264;BME280;26998;48.714;9.414;2023-06-22T02:11:44;100052.78;;;19.05;100.00
41264;BME280;26998;48.714;9.414;2023-06-22T02:14:13;100071.81;;;18.98;100.00
41264;BME280;26998;48.714;9.414;2023-06-22T02:16:40;99239.59;;;18.96;100.00
41264;BME280;26998;48.714;9.414;2023-06-22T02:19:08;99138.09;;;18.99;100.00
41264;BME280;26998;48.714;9.414;2023-06-22T02:21:36;99140.81;;;18.99;100.00
41264;BME280;26998;48.714;9.414;2023-06-22T02:24:04;99135.88;;;18.96;100.00
41264;BME280;26998;48.714;9.414;2023-06-22T02:26:31;99150.97;;;18.91;100.00
41264;BME280;26998;48.714;9.414;2023-06-22T02:28:58;99145.78;;;18.90;100.00
41264;BME280;26998;48.714;9.414;2023-06-22T02:31:25;99151.78;;;18.92;100.00
41264;BME280;26998;48.714;9.414;2023-06-22T02:33:51;99155.66;;;18.96;100.00
41264;BME280;26998;48.714;9.414;2023-06-22T02:36:18;99154.72;;;18.90;100.00
41264;BME280;26998;48.714;9.414;2023-06-22T02:38:45;99143.34;;;18.88;100.00
41264;BME280;26998;48.714;9.414;2023-06-22T02:41:11;99126.56;;;18.75;100.00
41264;BME280;26998;48.714;9.414;2023-06-22T02:43:40;99125.75;;;18.74;100.00
41264;BME280;26998;48.714;9.414;2023-06-22T02:46:07;99126.91;;;18.78;100.00
41264;BME280;26998;48.714;9.414;2023-06-22T02:48:34;99126.66;;;18.80;100.00
41264;BME280;26998;48.714;9.414;2023-06-22T02:51:02;99123.66;;;18.64;100.00
41264;BME280;26998;48.714;9.414;2023-06-22T02:53:29;99095.94;;;18.57;100.00
41264;BME280;26998;48.714;9.414;2023-06-22T02:55:57;99083.44;;;18.56;100.00
41264;BME280;26998;48.714;9.414;2023-06-22T02:58:23;99078.97;;;18.62;100.00
41264;BME280;26998;48.714;9.414;2023-06-22T03:00:50;99086.91;;;18.68;100.00
41264;BME280;26998;48.714;9.414;2023-06-22T03:03:16;99091.78;;;18.66;100.00
41264;BME280;26998;48.714;9.414;2023-06-22T03:05:44;99088.06;;;18.56;100.00
41264;BME280;26998;48.714;9.414;2023-06-22T03:08:12;99072.22;;;18.48;100.00
41264;BME280;26998;48.714;9.414;2023-06-22T03:10:39;99066.47;;;18.44;100.00
41264;BME280;26998;48.714;9.414;2023-06-22T03:13:06;99061.22;;;18.37;100.00
41264;BME280;26998;48.714;9.414;2023-06-22T03:15:33;99066.13;;;18.40;100.00
41264;BME280;26998;48.714;9.414;2023-06-22T03:18:00;99062.50;;;18.35;100.00
41264;BME280;26998;48.714;9.414;2023-06-22T03:20:28;99059.72;;;18.30;100.00
41264;BME280;26998;48.714;9.414;2023-06-22T03:22:55;99043.06;;;18.21;100.00
41264;BME280;26998;48.714;9.414;2023-06-22T03:25:22;99036.25;;;18.18;100.00
41264;BME280;26998;48.714;9.414;2023-06-22T03:27:48;99029.22;;;18.17;100.00
41264;BME280;26998;48.714;9.414;2023-06-22T03:30:15;99024.63;;;18.18;100.00
41264;BME280;26998;48.714;9.414;2023-06-22T03:32:42;99033.38;;;18.25;100.00
41264;BME280;26998;48.714;9.414;2023-06-22T03:35:09;99027.91;;;18.37;100.00
41264;BME280;26998;48.714;9.414;2023-06-22T03:37:36;99043.25;;;18.31;100.00
41264;BME280;26998;48.714;9.414;2023-06-22T03:40:02;99044.81;;;18.27;100.00
41264;BME280;26998;48.714;9.414;2023-06-22T03:42:33;99039.38;;;18.27;100.00
41264;BME280;26998;48.714;9.414;2023-06-22T03:45:00;99032.19;;;18.33;100.00
41264;BME280;26998;48.714;9.414;2023-06-22T03:47:29;99045.56;;;18.39;100.00
41264;BME280;26998;48.714;9.414;2023-06-22T03:49:56;99050.59;;;18.48;100.00
41264;BME280;26998;48.714;9.414;2023-06-22T03:52:22;99060.16;;;18.55;100.00
41264;BME280;26998;48.714;9.414;2023-06-22T03:54:49;99085.94;;;18.58;100.00
41264;BME280;26998;48.714;9.414;2023-06-22T03:57:15;99089.78;;;18.62;100.00
41264;BME280;26998;48.714;9.414;2023-06-22T03:59:42;99102.16;;;18.58;100.00
41264;BME280;26998;48.714;9.414;2023-06-22T04:02:09;99104.38;;;18.61;100.00
41264;BME280;26998;48.714;9.414;2023-06-22T04:04:35;99106.94;;;18.67;100.00
41264;BME280;26998;48.714;9.414;2023-06-22T04:07:02;99111.28;;;18.68;100.00
41264;BME280;26998;48.714;9.414;2023-06-22T04:09:29;99127.84;;;18.72;100.00
41264;BME280;26998;48.714;9.414;2023-06-22T04:11:55;99124.31;;;18.72;100.00
41264;BME280;26998;48.714;9.414;2023-06-22T04:14:22;99123.31;;;18.73;100.00
41264;BME280;26998;48.714;9.414;2023-06-22T04:16:49;99120.69;;;18.66;100.00
41264;BME280;26998;48.714;9.414;2023-06-22T04:19:16;99112.59;;;18.66;100.00
41264;BME280;26998;48.714;9.414;2023-06-22T04:21:43;99101.16;;;18.47;100.00
41264;BME280;26998;48.714;9.414;2023-06-22T04:24:12;99085.50;;;18.49;100.00
41264;BME280;26998;48.714;9.414;2023-06-22T04:26:40;99074.19;;;18.69;100.00
41264;BME280;26998;48.714;9.414;2023-06-22T04:29:07;99094.28;;;18.85;100.00
41264;BME280;26998;48.714;9.414;2023-06-22T04:31:37;99139.84;;;19.44;100.00
41264;BME280;26998;48.714;9.414;2023-06-22T04:34:04;99214.22;;;20.03;100.00
41264;BME280;26998;48.714;9.414;2023-06-22T04:36:39;99232.47;;;20.08;100.00
41264;BME280;26998;48.714;9.414;2023-06-22T04:39:07;99246.13;;;20.35;100.00
41264;BME280;26998;48.714;9.414;2023-06-22T04:41:36;99262.44;;;20.40;100.00
41264;BME280;26998;48.714;9.414;2023-06-22T04:44:02;99257.72;;;20.74;100.00
41264;BME280;26998;48.714;9.414;2023-06-22T04:46:29;99259.06;;;21.53;100.00
41264;BME280;26998;48.714;9.414;2023-06-22T04:48:55;99240.13;;;22.11;100.00
41264;BME280;26998;48.714;9.414;2023-06-22T04:51:22;99205.53;;;22.69;100.00
41264;BME280;26998;48.714;9.414;2023-06-22T04:53:48;99196.63;;;23.25;100.00
41264;BME280;26998;48.714;9.414;2023-06-22T04:56:15;99187.91;;;23.28;100.00
41264;BME280;26998;48.714;9.414;2023-06-22T04:58:41;99127.19;;;23.97;100.00
41264;BME280;26998;48.714;9.414;2023-06-22T05:01:07;99042.38;;;24.33;100.00
41264;BME280;26998;48.714;9.414;2023-06-22T05:03:34;99003.88;;;24.64;100.00
41264;BME280;26998;48.714;9.414;2023-06-22T05:06:01;99015.16;;;24.57;100.00
41264;BME280;26998;48.714;9.414;2023-06-22T05:08:27;98952.13;;;25.02;100.00
41264;BME280;26998;48.714;9.414;2023-06-22T05:10:54;98945.19;;;24.27;100.00
41264;BME280;26998;48.714;9.414;2023-06-22T05:13:30;99003.41;;;24.57;100.00
41264;BME280;26998;48.714;9.414;2023-06-22T05:15:57;98859.03;;;25.12;100.00
41264;BME280;26998;48.714;9.414;2023-06-22T05:18:23;98797.25;;;25.68;100.00
41264;BME280;26998;48.714;9.414;2023-06-22T05:20:50;98803.97;;;26.08;100.00
41264;BME280;26998;48.714;9.414;2023-06-22T05:23:16;98805.53;;;25.63;100.00
41264;BME280;26998;48.714;9.414;2023-06-22T05:25:43;98797.84;;;25.84;100.00
41264;BME280;26998;48.714;9.414;2023-06-22T05:28:09;98880.34;;;24.91;100.00
41264;BME280;26998;48.714;9.414;2023-06-22T05:30:36;98863.88;;;24.96;100.00
41264;BME280;26998;48.714;9.414;2023-06-22T05:33:02;98845.38;;;25.12;100.00
41264;BME280;26998;48.714;9.414;2023-06-22T05:35:29;98840.47;;;25.33;100.00
41264;BME280;26998;48.714;9.414;2023-06-22T05:37:55;98930.44;;;23.89;100.00
41264;BME280;26998;48.714;9.414;2023-06-22T05:40:22;98921.31;;;24.38;100.00
41264;BME280;26998;48.714;9.414;2023-06-22T05:42:48;98833.72;;;25.44;100.00
41264;BME280;26998;48.714;9.414;2023-06-22T05:45:15;98754.97;;;25.93;100.00
41264;BME280;26998;48.714;9.414;2023-06-22T05:47:42;98697.34;;;27.03;100.00
41264;BME280;26998;48.714;9.414;2023-06-22T05:50:10;98691.09;;;27.48;100.00
41264;BME280;26998;48.714;9.414;2023-06-22T05:52:38;98649.56;;;28.12;100.00
41264;BME280;26998;48.714;9.414;2023-06-22T05:55:07;98641.97;;;28.08;100.00
41264;BME280;26998;48.714;9.414;2023-06-22T05:57:34;98625.16;;;28.01;100.00
41264;BME280;26998;48.714;9.414;2023-06-22T06:00:00;98641.34;;;28.12;100.00
41264;BME280;26998;48.714;9.414;2023-06-22T06:02:27;98631.13;;;28.03;100.00
41264;BME280;26998;48.714;9.414;2023-06-22T06:04:54;98629.38;;;28.07;100.00
41264;BME280;26998;48.714;9.414;2023-06-22T06:07:21;98621.41;;;28.54;100.00
41264;BME280;26998;48.714;9.414;2023-06-22T06:09:47;98614.72;;;27.81;100.00
41264;BME280;26998;48.714;9.414;2023-06-22T06:12:14;98609.94;;;27.95;100.00
41264;BME280;26998;48.714;9.414;2023-06-22T06:14:41;98606.91;;;28.05;100.00
41264;BME280;26998;48.714;9.414;2023-06-22T06:17:08;98608.94;;;29.00;94.23
41264;BME280;26998;48.714;9.414;2023-06-22T06:19:34;98619.69;;;27.16;100.00
41264;BME280;26998;48.714;9.414;2023-06-22T06:22:01;98632.13;;;27.00;100.00
41264;BME280;26998;48.714;9.414;2023-06-22T06:24:29;98616.94;;;28.10;100.00
41264;BME280;26998;48.714;9.414;2023-06-22T06:26:55;98607.59;;;28.20;98.35
41264;BME280;26998;48.714;9.414;2023-06-22T06:29:22;98606.84;;;28.97;92.93
41264;BME280;26998;48.714;9.414;2023-06-22T06:31:49;98618.16;;;27.55;100.00
41264;BME280;26998;48.714;9.414;2023-06-22T06:34:18;98608.59;;;28.85;94.82
41264;BME280;26998;48.714;9.414;2023-06-22T06:36:44;98625.19;;;26.44;100.00
41264;BME280;26998;48.714;9.414;2023-06-22T06:39:11;98642.44;;;26.44;100.00
41264;BME280;26998;48.714;9.414;2023-06-22T06:41:38;98615.22;;;26.98;100.00
41264;BME280;26998;48.714;9.414;2023-06-22T06:44:04;98624.72;;;26.78;100.00
41264;BME280;26998;48.714;9.414;2023-06-22T06:46:32;98614.78;;;26.82;100.00
41264;BME280;26998;48.714;9.414;2023-06-22T06:49:00;98636.38;;;26.84;100.00
41264;BME280;26998;48.714;9.414;2023-06-22T06:51:26;98627.63;;;26.59;100.00
41264;BME280;26998;48.714;9.414;2023-06-22T06:53:54;98617.66;;;27.53;100.00
41264;BME280;26998;48.714;9.414;2023-06-22T06:56:21;98639.00;;;26.89;100.00
41264;BME280;26998;48.714;9.414;2023-06-22T06:58:50;98622.03;;;27.54;100.00
41264;BME280;26998;48.714;9.414;2023-06-22T07:01:18;98619.81;;;27.34;100.00
41264;BME280;26998;48.714;9.414;2023-06-22T07:03:48;98621.19;;;27.54;100.00
41264;BME280;26998;48.714;9.414;2023-06-22T07:06:15;98615.06;;;27.57;100.00
41264;BME280;26998;48.714;9.414;2023-06-22T07:08:41;98628.63;;;26.63;100.00
41264;BME280;26998;48.714;9.414;2023-06-22T07:11:08;98633.66;;;26.34;100.00
41264;BME280;26998;48.714;9.414;2023-06-22T07:13:36;98633.09;;;26.73;100.00
41264;BME280;26998;48.714;9.414;2023-06-22T07:16:02;98623.53;;;26.93;100.00
41264;BME280;26998;48.714;9.414;2023-06-22T07:18:29;98624.78;;;26.51;100.00
41264;BME280;26998;48.714;9.414;2023-06-22T07:20:56;98626.47;;;26.74;100.00
41264;BME280;26998;48.714;9.414;2023-06-22T07:23:24;98621.28;;;26.72;100.00
41264;BME280;26998;48.714;9.414;2023-06-22T07:25:50;98616.41;;;26.33;100.00
41264;BME280;26998;48.714;9.414;2023-06-22T07:28:17;98613.91;;;26.59;100.00
41264;BME280;26998;48.714;9.414;2023-06-22T07:30:44;98607.78;;;26.76;100.00
41264;BME280;26998;48.714;9.414;2023-06-22T07:33:11;98602.94;;;27.18;100.00
41264;BME280;26998;48.714;9.414;2023-06-22T07:35:37;98573.78;;;27.31;100.00
41264;BME280;26998;48.714;9.414;2023-06-22T07:38:04;98568.53;;;27.43;100.00
41264;BME280;26998;48.714;9.414;2023-06-22T07:40:32;98566.53;;;27.26;100.00
41264;BME280;26998;48.714;9.414;2023-06-22T07:43:01;98556.63;;;27.56;100.00
41264;BME280;26998;48.714;9.414;2023-06-22T07:45:27;98559.53;;;27.51;100.00
41264;BME280;26998;48.714;9.414;2023-06-22T07:47:54;98539.41;;;27.73;99.29
41264;BME280;26998;48.714;9.414;2023-06-22T07:50:20;98531.22;;;27.91;100.00
41264;BME280;26998;48.714;9.414;2023-06-22T07:52:47;98529.16;;;27.96;99.57
41264;BME280;26998;48.714;9.414;2023-06-22T07:55:14;98520.72;;;27.84;98.41
41264;BME280;26998;48.714;9.414;2023-06-22T07:57:40;98518.34;;;28.08;98.48
41264;BME280;26998;48.714;9.414;2023-06-22T08:00:07;98515.63;;;28.26;97.00
41264;BME280;26998;48.714;9.414;2023-06-22T08:02:34;98506.09;;;28.32;96.14
41264;BME280;26998;48.714;9.414;2023-06-22T08:05:01;98519.00;;;28.14;96.27
41264;BME280;26998;48.714;9.414;2023-06-22T08:07:46;98502.66;;;27.92;95.31
41264;BME280;26998;48.714;9.414;2023-06-22T08:10:14;98512.53;;;28.36;95.18
41264;BME280;26998;48.714;9.414;2023-06-22T08:12:42;98498.97;;;28.40;94.65
41264;BME280;26998;48.714;9.414;2023-06-22T08:15:09;98494.59;;;28.47;93.22
41264;BME280;26998;48.714;9.414;2023-06-22T08:17:39;98495.38;;;28.83;91.92
41264;BME280;26998;48.714;9.414;2023-06-22T08:20:07;98495.03;;;29.02;90.85
41264;BME280;26998;48.714;9.414;2023-06-22T08:22:34;98498.28;;;28.86;90.04
41264;BME280;26998;48.714;9.414;2023-06-22T08:25:03;98505.88;;;28.89;89.74
41264;BME280;26998;48.714;9.414;2023-06-22T08:27:30;98509.75;;;29.44;86.17
41264;BME280;26998;48.714;9.414;2023-06-22T08:29:58;98505.88;;;29.75;83.47
41264;BME280;26998;48.714;9.414;2023-06-22T08:32:26;98515.94;;;29.41;87.85
41264;BME280;26998;48.714;9.414;2023-06-22T08:34:56;98523.50;;;29.82;84.49
41264;BME280;26998;48.714;9.414;2023-06-22T08:37:24;98538.94;;;29.75;83.04
41264;BME280;26998;48.714;9.414;2023-06-22T08:39:51;98544.09;;;30.06;81.75
41264;BME280;26998;48.714;9.414;2023-06-22T08:42:17;98547.81;;;30.10;82.82
41264;BME280;26998;48.714;9.414;2023-06-22T08:44:44;98552.94;;;29.90;82.36
41264;BME280;26998;48.714;9.414;2023-06-22T08:47:10;98557.56;;;30.07;81.07
41264;BME280;26998;48.714;9.414;2023-06-22T08:49:37;98562.91;;;30.33;81.86
41264;BME280;26998;48.714;9.414;2023-06-22T08:52:04;98573.13;;;30.54;80.48
41264;BME280;26998;48.714;9.414;2023-06-22T08:54:31;98579.97;;;30.90;78.23
41264;BME280;26998;48.714;9.414;2023-06-22T08:56:58;98582.63;;;31.19;76.74
41264;BME280;26998;48.714;9.414;2023-06-22T08:59:25;98583.75;;;30.64;77.48
41264;BME280;26998;48.714;9.414;2023-06-22T09:01:51;98582.53;;;30.53;77.74
41264;BME280;26998;48.714;9.414;2023-06-22T09:04:18;98586.38;;;31.15;74.46
41264;BME280;26998;48.714;9.414;2023-06-22T09:06:45;98574.31;;;30.65;78.72
41264;BME280;26998;48.714;9.414;2023-06-22T09:09:12;98556.72;;;30.57;81.35
41264;BME280;26998;48.714;9.414;2023-06-22T09:11:39;98548.50;;;30.49;81.96
41264;BME280;26998;48.714;9.414;2023-06-22T09:14:06;98543.44;;;30.93;79.55
41264;BME280;26998;48.714;9.414;2023-06-22T09:16:32;98543.19;;;30.65;80.92
41264;BME280;26998;48.714;9.414;2023-06-22T09:18:59;98538.88;;;31.09;80.95
41264;BME280;26998;48.714;9.414;2023-06-22T09:21:25;98542.91;;;31.12;79.04
41264;BME280;26998;48.714;9.414;2023-06-22T09:23:52;98535.44;;;31.24;80.39
41264;BME280;26998;48.714;9.414;2023-06-22T09:26:20;98528.91;;;30.83;80.00
41264;BME280;26998;48.714;9.414;2023-06-22T09:28:46;98539.44;;;31.48;79.74
41264;BME280;26998;48.714;9.414;2023-06-22T09:31:13;98538.97;;;31.83;74.26
41264;BME280;26998;48.714;9.414;2023-06-22T09:33:40;98544.16;;;31.72;75.97
41264;BME280;26998;48.714;9.414;2023-06-22T09:36:07;98536.38;;;31.16;81.11
41264;BME280;26998;48.714;9.414;2023-06-22T09:38:35;98534.66;;;31.24;82.86
41264;BME280;26998;48.714;9.414;2023-06-22T09:41:02;98522.81;;;31.23;84.03
41264;BME280;26998;48.714;9.414;2023-06-22T09:43:31;98523.22;;;31.34;82.81
41264;BME280;26998;48.714;9.414;2023-06-22T09:45:57;98524.13;;;31.38;82.33
41264;BME280;26998;48.714;9.414;2023-06-22T09:48:24;98520.25;;;31.06;82.43
41264;BME280;26998;48.714;9.414;2023-06-22T09:50:51;98523.72;;;31.27;80.35
41264;BME280;26998;48.714;9.414;2023-06-22T09:53:17;98516.41;;;31.68;80.12
41264;BME280;26998;48.714;9.414;2023-06-22T09:55:44;98522.63;;;31.65;79.84
41264;BME280;26998;48.714;9.414;2023-06-22T09:58:11;98516.75;;;31.91;77.16
41264;BME280;26998;48.714;9.414;2023-06-22T10:00:38;98512.03;;;31.55;80.02
41264;BME280;26998;48.714;9.414;2023-06-22T10:03:05;98514.16;;;31.00;82.61
41264;BME280;26998;48.714;9.414;2023-06-22T10:05:31;98511.97;;;31.06;83.46
41264;BME280;26998;48.714;9.414;2023-06-22T10:07:59;98513.19;;;31.66;82.37
41264;BME280;26998;48.714;9.414;2023-06-22T10:10:25;98501.28;;;31.17;84.74
41264;BME280;26998;48.714;9.414;2023-06-22T10:12:57;98504.19;;;32.06;79.85
41264;BME280;26998;48.714;9.414;2023-06-22T10:15:24;98490.84;;;31.22;80.90
41264;BME280;26998;48.714;9.414;2023-06-22T10:17:50;98485.38;;;30.89;82.64
41264;BME280;26998;48.714;9.414;2023-06-22T10:20:17;98475.59;;;30.92;84.76
41264;BME280;26998;48.714;9.414;2023-06-22T10:22:44;98477.16;;;31.26;84.36
41264;BME280;26998;48.714;9.414;2023-06-22T10:25:12;98485.00;;;30.78;84.96
41264;BME280;26998;48.714;9.414;2023-06-22T10:27:39;98476.25;;;31.46;83.55
41264;BME280;26998;48.714;9.414;2023-06-22T10:30:10;98472.47;;;31.51;81.68
41264;BME280;26998;48.714;9.414;2023-06-22T10:32:38;98463.41;;;32.15;80.57
41264;BME280;26998;48.714;9.414;2023-06-22T10:35:05;98462.91;;;32.54;77.36
41264;BME280;26998;48.714;9.414;2023-06-22T10:37:32;98465.28;;;31.74;78.56
41264;BME280;26998;48.714;9.414;2023-06-22T10:39:58;98459.31;;;31.97;77.58
41264;BME280;26998;48.714;9.414;2023-06-22T10:42:25;98456.66;;;31.76;78.69
41264;BME280;26998;48.714;9.414;2023-06-22T10:44:52;98454.53;;;32.10;75.77
41264;BME280;26998;48.714;9.414;2023-06-22T10:47:18;98450.59;;;32.11;75.78
41264;BME280;26998;48.714;9.414;2023-06-22T10:49:45;98452.28;;;31.75;76.04
41264;BME280;26998;48.714;9.414;2023-06-22T10:52:12;98448.25;;;31.85;80.15
41264;BME280;26998;48.714;9.414;2023-06-22T10:54:38;98438.34;;;32.24;73.97
41264;BME280;26998;48.714;9.414;2023-06-22T10:57:06;98435.69;;;32.28;73.75
41264;BME280;26998;48.714;9.414;2023-06-22T10:59:33;98439.84;;;32.94;69.54
41264;BME280;26998;48.714;9.414;2023-06-22T11:01:59;98439.41;;;32.92;66.70
41264;BME280;26998;48.714;9.414;2023-06-22T11:04:26;98441.34;;;32.75;68.21
41264;BME280;26998;48.714;9.414;2023-06-22T11:06:53;98436.88;;;32.42;68.08
41264;BME280;26998;48.714;9.414;2023-06-22T11:09:22;98435.09;;;32.62;65.74
41264;BME280;26998;48.714;9.414;2023-06-22T11:11:55;98438.22;;;32.77;62.93
41264;BME280;26998;48.714;9.414;2023-06-22T11:14:22;98435.97;;;32.51;63.72
41264;BME280;26998;48.714;9.414;2023-06-22T11:16:49;98438.28;;;33.24;58.94
41264;BME280;26998;48.714;9.414;2023-06-22T11:19:19;98448.06;;;32.90;65.53
41264;BME280;26998;48.714;9.414;2023-06-22T11:21:46;98442.03;;;32.28;69.65
41264;BME280;26998;48.714;9.414;2023-06-22T11:24:13;98433.47;;;32.33;72.09
41264;BME280;26998;48.714;9.414;2023-06-22T11:26:42;98435.78;;;33.03;68.04
41264;BME280;26998;48.714;9.414;2023-06-22T11:29:12;98433.97;;;33.27;68.42
41264;BME280;26998;48.714;9.414;2023-06-22T11:31:57;98440.94;;;33.52;65.70
41264;BME280;26998;48.714;9.414;2023-06-22T11:34:24;98443.97;;;33.47;58.87
41264;BME280;26998;48.714;9.414;2023-06-22T11:36:51;98436.94;;;33.50;63.41
41264;BME280;26998;48.714;9.414;2023-06-22T11:39:17;98436.88;;;33.66;62.00
41264;BME280;26998;48.714;9.414;2023-06-22T11:41:55;98428.13;;;33.48;65.25
41264;BME280;26998;48.714;9.414;2023-06-22T11:44:21;98417.19;;;33.04;65.76
41264;BME280;26998;48.714;9.414;2023-06-22T11:46:48;98409.22;;;33.34;66.35
41264;BME280;26998;48.714;9.414;2023-06-22T11:49:14;98411.97;;;33.85;54.42
41264;BME280;26998;48.714;9.414;2023-06-22T11:51:41;98413.84;;;33.30;57.31
41264;BME280;26998;48.714;9.414;2023-06-22T11:54:07;98406.03;;;33.00;61.73
41264;BME280;26998;48.714;9.414;2023-06-22T11:56:34;98406.28;;;33.11;61.80
41264;BME280;26998;48.714;9.414;2023-06-22T11:59:01;98412.03;;;33.02;63.63
41264;BME280;26998;48.714;9.414;2023-06-22T12:01:27;98415.66;;;32.75;66.05
41264;BME280;26998;48.714;9.414;2023-06-22T12:03:54;98417.44;;;32.83;67.08
41264;BME280;26998;48.714;9.414;2023-06-22T12:06:21;98415.44;;;32.52;70.55
41264;BME280;26998;48.714;9.414;2023-06-22T12:08:47;98416.53;;;32.35;67.32
41264;BME280;26998;48.714;9.414;2023-06-22T12:11:14;98424.38;;;32.33;69.55
41264;BME280;26998;48.714;9.414;2023-06-22T12:13:41;98414.94;;;32.34;69.39
41264;BME280;26998;48.714;9.414;2023-06-22T12:16:07;98404.44;;;32.99;65.18
41264;BME280;26998;48.714;9.414;2023-06-22T12:18:34;98388.31;;;32.89;63.72
41264;BME280;26998;48.714;9.414;2023-06-22T12:21:01;98383.91;;;33.51;63.07
41264;BME280;26998;48.714;9.414;2023-06-22T12:23:27;98386.94;;;33.82;59.29
41264;BME280;26998;48.714;9.414;2023-06-22T12:25:55;98392.03;;;33.44;60.10
41264;BME280;26998;48.714;9.414;2023-06-22T12:28:22;98392.97;;;33.32;64.05
41264;BME280;26998;48.714;9.414;2023-06-22T12:30:49;98397.22;;;33.46;62.54
41264;BME280;26998;48.714;9.414;2023-06-22T12:33:15;98398.25;;;32.90;59.90
41264;BME280;26998;48.714;9.414;2023-06-22T12:35:44;98407.06;;;32.80;59.06
41264;BME280;26998;48.714;9.414;2023-06-22T12:38:11;98412.81;;;32.71;66.78
41264;BME280;26998;48.714;9.414;2023-06-22T12:40:40;98410.69;;;32.52;69.77
41264;BME280;26998;48.714;9.414;2023-06-22T12:43:10;98420.00;;;32.32;73.39
41264;BME280;26998;48.714;9.414;2023-06-22T12:45:36;98421.97;;;32.31;77.21
41264;BME280;26998;48.714;9.414;2023-06-22T12:48:06;98415.69;;;32.18;80.12
41264;BME280;26998;48.714;9.414;2023-06-22T12:50:34;98426.25;;;31.88;82.18
41264;BME280;26998;48.714;9.414;2023-06-22T12:53:01;98435.47;;;31.80;83.38
41264;BME280;26998;48.714;9.414;2023-06-22T12:55:27;98444.03;;;31.50;85.10
41264;BME280;26998;48.714;9.414;2023-06-22T12:57:54;98446.69;;;31.47;84.45
41264;BME280;26998;48.714;9.414;2023-06-22T13:00:21;98443.91;;;31.71;84.45